createdAt,value
2022-09-26T00:00:51.566Z,0.00
2022-09-26T00:01:48.343Z,0.00
2022-09-26T00:02:48.315Z,0.00
2022-09-26T00:03:51.270Z,0.00
2022-09-26T00:04:51.219Z,0.00
2022-09-26T00:06:03.642Z,0.00
2022-09-26T00:06:48.416Z,0.00
2022-09-26T00:07:48.226Z,0.00
2022-09-26T00:08:48.178Z,0.00
2022-09-26T00:09:51.179Z,0.00
2022-09-26T00:10:51.149Z,0.00
2022-09-26T00:12:03.592Z,0.00
2022-09-26T00:12:48.357Z,0.00
2022-09-26T00:13:48.351Z,0.00
2022-09-26T00:14:48.346Z,0.00
2022-09-26T00:15:48.588Z,0.00
2022-09-26T00:16:48.366Z,0.00
2022-09-26T00:17:48.080Z,0.00
2022-09-26T00:18:48.305Z,0.00
2022-09-26T00:19:48.509Z,0.00
2022-09-26T00:20:48.267Z,0.00
2022-09-26T00:21:51.300Z,0.00
2022-09-26T00:22:48.040Z,0.00
2022-09-26T00:23:48.249Z,0.00
2022-09-26T00:24:49.240Z,0.00
2022-09-26T00:25:51.263Z,0.00
2022-09-26T00:26:48.219Z,0.00
2022-09-26T00:27:49.212Z,0.00
2022-09-26T00:28:47.961Z,0.00
2022-09-26T00:29:47.933Z,0.00
2022-09-26T00:30:49.263Z,0.00
2022-09-26T00:31:48.199Z,0.00
2022-09-26T00:32:48.604Z,0.00
2022-09-26T00:33:47.932Z,0.00
2022-09-26T00:34:54.972Z,0.00
2022-09-26T00:35:55.153Z,0.00
2022-09-26T00:36:47.871Z,0.00
2022-09-26T00:37:47.878Z,0.00
2022-09-26T00:38:48.059Z,0.00
2022-09-26T00:39:48.100Z,0.00
2022-09-26T00:40:48.131Z,0.00
2022-09-26T00:41:48.057Z,0.00
2022-09-26T00:42:48.022Z,0.00
2022-09-26T00:43:48.042Z,0.00
2022-09-26T00:44:47.817Z,0.00
2022-09-26T00:45:47.878Z,0.00
2022-09-26T00:46:47.760Z,0.00
2022-09-26T00:47:47.762Z,0.00
2022-09-26T00:48:47.758Z,0.00
2022-09-26T00:49:47.759Z,0.00
2022-09-26T00:50:47.731Z,0.00
2022-09-26T00:51:47.932Z,0.00
2022-09-26T00:52:48.703Z,0.00
2022-09-26T00:53:50.949Z,0.00
2022-09-26T00:54:50.952Z,0.00
2022-09-26T00:55:47.683Z,0.00
2022-09-26T00:56:48.673Z,0.00
2022-09-26T00:57:47.878Z,0.00
2022-09-26T00:58:50.688Z,0.00
2022-09-26T00:59:47.624Z,0.00
2022-09-26T01:00:47.950Z,0.00
2022-09-26T01:01:47.688Z,0.00
2022-09-26T01:02:47.645Z,0.00
2022-09-26T01:03:48.609Z,0.00
2022-09-26T01:04:47.564Z,0.00
2022-09-26T01:05:47.581Z,0.00
2022-09-26T01:06:48.554Z,0.00
2022-09-26T01:07:47.562Z,0.00
2022-09-26T01:08:47.514Z,0.00
2022-09-26T01:09:47.768Z,0.00
2022-09-26T01:10:47.556Z,0.00
2022-09-26T01:11:47.511Z,0.00
2022-09-26T01:12:47.488Z,0.00
2022-09-26T01:13:47.699Z,0.00
2022-09-26T01:14:47.485Z,0.00
2022-09-26T01:15:47.511Z,0.00
2022-09-26T01:16:47.749Z,0.00
2022-09-26T01:17:54.715Z,0.00
2022-09-26T01:18:50.688Z,0.00
2022-09-26T01:20:09.689Z,0.00
2022-09-26T01:20:47.403Z,0.00
2022-09-26T01:21:47.425Z,0.00
2022-09-26T01:23:02.693Z,0.00
2022-09-26T01:23:50.669Z,0.00
2022-09-26T01:24:47.358Z,0.00
2022-09-26T01:25:47.360Z,0.00
2022-09-26T01:26:47.382Z,0.00
2022-09-26T01:27:47.327Z,0.00
2022-09-26T01:28:48.339Z,0.00
2022-09-26T01:29:48.328Z,0.00
2022-09-26T01:30:54.758Z,0.00
2022-09-26T01:31:47.550Z,0.00
2022-09-26T01:33:02.734Z,0.00
2022-09-26T01:33:48.299Z,0.00
2022-09-26T01:34:47.502Z,0.00
2022-09-26T01:35:47.520Z,0.00
2022-09-26T01:36:47.248Z,0.00
2022-09-26T01:37:47.238Z,0.00
2022-09-26T01:38:48.237Z,0.00
2022-09-26T01:39:47.440Z,0.00
2022-09-26T01:40:47.494Z,0.00
2022-09-26T01:41:50.198Z,0.00
2022-09-26T01:42:47.200Z,0.00
2022-09-26T01:43:47.410Z,0.00
2022-09-26T01:44:47.384Z,0.00
2022-09-26T01:45:47.155Z,0.00
2022-09-26T01:46:47.135Z,0.00
2022-09-26T01:47:47.135Z,0.00
2022-09-26T01:48:47.110Z,0.00
2022-09-26T01:49:50.134Z,0.00
2022-09-26T01:50:47.332Z,0.00
2022-09-26T01:51:47.324Z,0.00
2022-09-26T01:52:47.082Z,0.00
2022-09-26T01:53:54.314Z,0.00
2022-09-26T01:54:47.065Z,0.00
2022-09-26T01:55:48.047Z,0.00
2022-09-26T01:56:50.095Z,0.00
2022-09-26T01:57:47.036Z,0.00
2022-09-26T01:58:54.291Z,0.00
2022-09-26T01:59:47.253Z,0.00
2022-09-26T02:01:02.565Z,0.00
2022-09-26T02:01:50.030Z,0.00
2022-09-26T02:02:47.260Z,0.00
2022-09-26T02:03:47.198Z,0.00
2022-09-26T02:04:46.944Z,0.00
2022-09-26T02:05:47.950Z,0.00
2022-09-26T02:06:48.167Z,0.00
2022-09-26T02:07:46.905Z,0.00
2022-09-26T02:08:46.904Z,0.00
2022-09-26T02:09:46.908Z,0.00
2022-09-26T02:10:49.885Z,0.00
2022-09-26T02:11:47.115Z,0.00
2022-09-26T02:12:47.087Z,0.00
2022-09-26T02:13:47.093Z,0.00
2022-09-26T02:14:54.274Z,0.00
2022-09-26T02:15:47.076Z,0.00
2022-09-26T02:16:46.850Z,0.00
2022-09-26T02:17:46.808Z,0.00
2022-09-26T02:18:46.776Z,0.00
2022-09-26T02:19:47.806Z,0.00
2022-09-26T02:20:47.014Z,0.00
2022-09-26T02:21:46.997Z,0.00
2022-09-26T02:22:47.777Z,0.00
2022-09-26T02:23:46.969Z,0.00
2022-09-26T02:24:46.973Z,0.00
2022-09-26T02:25:46.958Z,0.00
2022-09-26T02:26:46.708Z,0.00
2022-09-26T02:27:46.735Z,0.00
2022-09-26T02:28:46.696Z,0.00
2022-09-26T02:29:49.951Z,0.00
2022-09-26T02:30:46.712Z,0.00
2022-09-26T02:31:46.958Z,0.00
2022-09-26T02:32:46.877Z,0.00
2022-09-26T02:33:46.654Z,0.00
2022-09-26T02:34:47.862Z,0.00
2022-09-26T02:35:49.869Z,0.00
2022-09-26T02:36:46.618Z,0.00
2022-09-26T02:37:46.822Z,0.00
2022-09-26T02:38:46.807Z,0.00
2022-09-26T02:39:49.611Z,0.00
2022-09-26T02:40:53.902Z,0.00
2022-09-26T02:41:46.802Z,0.00
2022-09-26T02:42:53.860Z,0.00
2022-09-26T02:43:46.558Z,0.00
2022-09-26T02:44:49.794Z,0.00
2022-09-26T02:45:53.877Z,0.00
2022-09-26T02:46:46.783Z,0.00
2022-09-26T02:48:02.097Z,0.00
2022-09-26T02:48:47.708Z,0.00
2022-09-26T02:49:46.721Z,0.00
2022-09-26T02:50:46.689Z,0.00
2022-09-26T02:51:46.467Z,0.00
2022-09-26T02:52:46.472Z,0.00
2022-09-26T02:53:53.593Z,0.00
2022-09-26T02:54:46.643Z,0.00
2022-09-26T02:55:46.657Z,0.00
2022-09-26T02:56:46.629Z,0.00
2022-09-26T02:57:46.438Z,0.00
2022-09-26T02:58:53.862Z,0.00
2022-09-26T03:00:01.955Z,0.00
2022-09-26T03:00:47.645Z,0.00
2022-09-26T03:01:49.617Z,0.00
2022-09-26T03:02:49.347Z,0.00
2022-09-26T03:03:46.629Z,0.00
2022-09-26T03:04:46.355Z,0.00
2022-09-26T03:05:46.327Z,0.00
2022-09-26T03:06:46.552Z,0.00
2022-09-26T03:07:47.295Z,0.00
2022-09-26T03:08:46.304Z,0.00
2022-09-26T03:09:46.254Z,0.00
2022-09-26T03:10:46.702Z,0.00
2022-09-26T03:11:53.628Z,0.00
2022-09-26T03:12:49.497Z,0.00
2022-09-26T03:13:46.508Z,0.00
2022-09-26T03:14:46.217Z,0.00
2022-09-26T03:15:46.465Z,0.00
2022-09-26T03:17:08.205Z,0.00
2022-09-26T03:17:46.164Z,0.00
2022-09-26T03:18:46.216Z,0.00
2022-09-26T03:19:46.168Z,0.00
2022-09-26T03:20:46.395Z,0.00
2022-09-26T03:21:46.370Z,0.00
2022-09-26T03:22:46.351Z,0.00
2022-09-26T03:23:46.381Z,0.00
2022-09-26T03:24:46.120Z,0.00
2022-09-26T03:25:46.090Z,0.00
2022-09-26T03:26:46.301Z,0.00
2022-09-26T03:27:53.608Z,0.00
2022-09-26T03:28:46.062Z,0.00
2022-09-26T03:29:46.325Z,0.00
2022-09-26T03:30:46.043Z,0.00
2022-09-26T03:31:47.078Z,0.00
2022-09-26T03:32:49.293Z,0.00
2022-09-26T03:33:47.041Z,0.00
2022-09-26T03:34:49.261Z,0.00
2022-09-26T03:35:46.001Z,0.00
2022-09-26T03:36:46.223Z,0.00
2022-09-26T03:37:45.991Z,0.00
2022-09-26T03:38:46.171Z,0.00
2022-09-26T03:39:46.178Z,0.00
2022-09-26T03:40:46.259Z,0.00
2022-09-26T03:41:46.942Z,0.00
2022-09-26T03:42:46.155Z,0.00
2022-09-26T03:43:46.132Z,0.00
2022-09-26T03:44:45.893Z,0.00
2022-09-26T03:45:45.934Z,0.00
2022-09-26T03:47:01.273Z,0.00
2022-09-26T03:47:46.088Z,0.00
2022-09-26T03:49:01.322Z,0.00
2022-09-26T03:49:45.872Z,0.00
2022-09-26T03:50:46.067Z,0.00
2022-09-26T03:52:01.517Z,0.00
2022-09-26T03:53:07.815Z,0.00
2022-09-26T03:53:45.807Z,0.00
2022-09-26T03:54:46.034Z,0.00
2022-09-26T03:55:46.793Z,0.00
2022-09-26T03:56:45.782Z,0.00
2022-09-26T03:57:45.749Z,0.00
2022-09-26T03:58:45.736Z,0.00
2022-09-26T04:00:09.775Z,0.00
2022-09-26T04:00:47.069Z,0.00
2022-09-26T04:01:45.780Z,0.00
2022-09-26T04:02:45.722Z,0.00
2022-09-26T04:03:50.249Z,0.00
2022-09-26T04:04:46.672Z,0.00
2022-09-26T04:05:45.913Z,0.00
2022-09-26T04:06:46.694Z,0.00
2022-09-26T04:07:45.877Z,0.00
2022-09-26T04:08:45.654Z,0.00
2022-09-26T04:09:45.871Z,0.00
2022-09-26T04:10:45.633Z,0.00
2022-09-26T04:11:45.612Z,0.00
2022-09-26T04:12:45.612Z,0.00
2022-09-26T04:13:53.982Z,0.00
2022-09-26T04:14:46.672Z,0.00
2022-09-26T04:15:45.796Z,0.00
2022-09-26T04:16:45.612Z,0.00
2022-09-26T04:17:46.591Z,0.00
2022-09-26T04:18:46.407Z,0.00
2022-09-26T04:19:46.763Z,0.00
2022-09-26T04:20:46.550Z,0.00
2022-09-26T04:21:45.582Z,0.00
2022-09-26T04:22:48.764Z,0.00
2022-09-26T04:23:45.493Z,0.00
2022-09-26T04:24:45.693Z,0.00
2022-09-26T04:25:52.614Z,0.00
2022-09-26T04:26:48.522Z,0.00
2022-09-26T04:27:45.678Z,0.00
2022-09-26T04:28:52.880Z,0.00
2022-09-26T04:29:45.637Z,0.00
2022-09-26T04:30:48.465Z,0.00
2022-09-26T04:31:48.479Z,0.00
2022-09-26T04:32:45.402Z,0.00
2022-09-26T04:33:46.377Z,0.00
2022-09-26T04:34:47.073Z,0.00
2022-09-26T04:35:48.618Z,0.00
2022-09-26T04:36:45.330Z,0.00
2022-09-26T04:37:45.589Z,0.00
2022-09-26T04:38:48.619Z,0.00
2022-09-26T04:39:46.574Z,0.00
2022-09-26T04:40:45.393Z,0.00
2022-09-26T04:41:46.305Z,0.00
2022-09-26T04:42:48.307Z,0.00
2022-09-26T04:43:45.537Z,0.00
2022-09-26T04:44:45.260Z,0.00
2022-09-26T04:45:45.519Z,0.00
2022-09-26T04:46:48.268Z,0.00
2022-09-26T04:48:00.712Z,0.00
2022-09-26T04:48:45.444Z,0.00
2022-09-26T04:49:45.208Z,0.00
2022-09-26T04:50:45.255Z,0.00
2022-09-26T04:51:45.428Z,0.00
2022-09-26T04:52:45.175Z,4.00
2022-09-26T04:53:45.405Z,0.00
2022-09-26T04:54:45.194Z,4.00
2022-09-26T04:55:46.164Z,4.00
2022-09-26T04:56:45.428Z,4.00
2022-09-26T04:57:45.113Z,8.00
2022-09-26T04:58:45.153Z,4.00
2022-09-26T04:59:48.380Z,4.00
2022-09-26T05:00:45.136Z,4.00
2022-09-26T05:01:45.122Z,8.00
2022-09-26T05:03:00.553Z,8.00
2022-09-26T05:03:45.098Z,12.00
2022-09-26T05:04:45.074Z,12.00
2022-09-26T05:05:48.112Z,16.00
2022-09-26T05:06:45.021Z,16.00
2022-09-26T05:07:45.266Z,20.00
2022-09-26T05:08:52.331Z,24.00
2022-09-26T05:09:45.212Z,24.00
2022-09-26T05:10:44.985Z,28.00
2022-09-26T05:11:46.216Z,52.00
2022-09-26T05:12:45.215Z,36.00
2022-09-26T05:13:45.325Z,40.00
2022-09-26T05:14:45.015Z,44.00
2022-09-26T05:15:45.165Z,44.00
2022-09-26T05:16:45.268Z,52.00
2022-09-26T05:17:44.900Z,56.00
2022-09-26T05:18:44.925Z,64.00
2022-09-26T05:19:44.917Z,72.00
2022-09-26T05:20:45.921Z,76.00
2022-09-26T05:21:52.048Z,80.00
2022-09-26T05:22:44.874Z,104.00
2022-09-26T05:23:45.582Z,96.00
2022-09-26T05:24:45.133Z,104.00
2022-09-26T05:25:47.867Z,112.00
2022-09-26T05:26:46.084Z,120.00
2022-09-26T05:27:52.224Z,128.00
2022-09-26T05:28:44.798Z,140.00
2022-09-26T05:29:44.815Z,152.00
2022-09-26T05:30:44.785Z,156.00
2022-09-26T05:31:45.869Z,164.00
2022-09-26T05:32:52.027Z,172.00
2022-09-26T05:33:47.744Z,188.00
2022-09-26T05:34:44.759Z,192.00
2022-09-26T05:36:00.198Z,200.00
2022-09-26T05:36:44.952Z,208.00
2022-09-26T05:37:45.748Z,224.00
2022-09-26T05:38:44.936Z,236.00
2022-09-26T05:39:44.984Z,260.00
2022-09-26T05:40:44.726Z,268.00
2022-09-26T05:41:44.655Z,272.00
2022-09-26T05:42:47.689Z,304.00
2022-09-26T05:43:47.671Z,336.00
2022-09-26T05:44:45.872Z,512.00
2022-09-26T05:45:44.634Z,472.00
2022-09-26T05:46:45.912Z,400.00
2022-09-26T05:47:47.636Z,492.00
2022-09-26T05:48:44.589Z,468.00
2022-09-26T05:49:44.581Z,416.00
2022-09-26T05:50:44.590Z,440.00
2022-09-26T05:51:45.821Z,396.00
2022-09-26T05:52:51.850Z,364.00
2022-09-26T05:53:44.540Z,428.00
2022-09-26T05:54:44.531Z,508.00
2022-09-26T05:55:44.527Z,652.00
2022-09-26T05:56:51.986Z,548.00
2022-09-26T05:57:51.650Z,564.00
2022-09-26T05:58:45.504Z,488.00
2022-09-26T05:59:44.703Z,448.00
2022-09-26T06:00:44.525Z,464.00
2022-09-26T06:01:44.707Z,476.00
2022-09-26T06:03:05.465Z,492.00
2022-09-26T06:03:45.692Z,460.00
2022-09-26T06:04:44.639Z,456.00
2022-09-26T06:05:44.441Z,468.00
2022-09-26T06:06:44.396Z,512.00
2022-09-26T06:07:44.384Z,528.00
2022-09-26T06:08:45.398Z,512.00
2022-09-26T06:09:45.392Z,540.00
2022-09-26T06:10:47.417Z,604.00
2022-09-26T06:11:44.593Z,592.00
2022-09-26T06:12:51.703Z,600.00
2022-09-26T06:13:47.385Z,620.00
2022-09-26T06:14:47.377Z,692.00
2022-09-26T06:15:44.537Z,772.00
2022-09-26T06:16:44.355Z,1044.00
2022-09-26T06:17:44.292Z,1168.00
2022-09-26T06:18:45.301Z,1244.00
2022-09-26T06:19:44.270Z,1088.00
2022-09-26T06:20:51.470Z,1096.00
2022-09-26T06:21:44.492Z,1116.00
2022-09-26T06:22:44.506Z,1760.00
2022-09-26T06:23:44.227Z,2540.00
2022-09-26T06:24:44.671Z,2648.00
2022-09-26T06:25:44.299Z,2000.00
2022-09-26T06:26:44.182Z,1364.00
2022-09-26T06:27:44.473Z,1032.00
2022-09-26T06:28:51.501Z,796.00
2022-09-26T06:29:44.176Z,812.00
2022-09-26T06:30:44.153Z,824.00
2022-09-26T06:31:44.222Z,888.00
2022-09-26T06:32:44.424Z,936.00
2022-09-26T06:33:44.366Z,860.00
2022-09-26T06:34:45.113Z,940.00
2022-09-26T06:35:44.387Z,1104.00
2022-09-26T06:36:44.108Z,1552.00
2022-09-26T06:37:45.106Z,1420.00
2022-09-26T06:38:44.318Z,908.00
2022-09-26T06:40:06.070Z,952.00
2022-09-26T06:40:44.313Z,1096.00
2022-09-26T06:41:44.036Z,1164.00
2022-09-26T06:42:44.269Z,924.00
2022-09-26T06:43:44.028Z,1064.00
2022-09-26T06:44:44.285Z,1100.00
2022-09-26T06:45:43.999Z,944.00
2022-09-26T06:46:51.536Z,964.00
2022-09-26T06:47:43.986Z,1012.00
2022-09-26T06:48:43.975Z,1448.00
2022-09-26T06:49:44.195Z,1400.00
2022-09-26T06:50:45.199Z,1344.00
2022-09-26T06:51:43.933Z,1240.00
2022-09-26T06:52:44.197Z,1164.00
2022-09-26T06:53:45.569Z,1224.00
2022-09-26T06:54:43.895Z,820.00
2022-09-26T06:55:43.917Z,724.00
2022-09-26T06:56:43.949Z,652.00
2022-09-26T06:57:44.131Z,588.00
2022-09-26T06:58:46.937Z,792.00
2022-09-26T06:59:44.077Z,1244.00
2022-09-26T07:00:51.015Z,1272.00
2022-09-26T07:01:47.273Z,1676.00
2022-09-26T07:02:47.129Z,1332.00
2022-09-26T07:03:45.864Z,2256.00
2022-09-26T07:04:43.802Z,1836.00
2022-09-26T07:05:43.788Z,2440.00
2022-09-26T07:06:46.857Z,2596.00
2022-09-26T07:07:44.989Z,3020.00
2022-09-26T07:09:01.658Z,2756.00
2022-09-26T07:09:47.769Z,2268.00
2022-09-26T07:10:43.728Z,2124.00
2022-09-26T07:12:09.903Z,1664.00
2022-09-26T07:12:44.926Z,1808.00
2022-09-26T07:13:43.709Z,2504.00
2022-09-26T07:14:51.397Z,2848.00
2022-09-26T07:15:44.690Z,2436.00
2022-09-26T07:16:43.672Z,2488.00
2022-09-26T07:17:59.230Z,2688.00
2022-09-26T07:18:43.655Z,2468.00
2022-09-26T07:19:43.891Z,1780.00
2022-09-26T07:20:44.684Z,1628.00
2022-09-26T07:21:43.625Z,2320.00
2022-09-26T07:22:43.884Z,2556.00
2022-09-26T07:23:43.857Z,2516.00
2022-09-26T07:24:43.900Z,2056.00
2022-09-26T07:26:04.587Z,1668.00
2022-09-26T07:26:44.825Z,1736.00
2022-09-26T07:27:43.774Z,1844.00
2022-09-26T07:28:43.592Z,1388.00
2022-09-26T07:29:43.568Z,1180.00
2022-09-26T07:30:43.734Z,1292.00
2022-09-26T07:31:59.201Z,1692.00
2022-09-26T07:32:44.515Z,1616.00
2022-09-26T07:33:50.795Z,1100.00
2022-09-26T07:34:43.533Z,864.00
2022-09-26T07:35:44.732Z,856.00
2022-09-26T07:36:43.671Z,880.00
2022-09-26T07:37:43.441Z,876.00
2022-09-26T07:38:43.424Z,840.00
2022-09-26T07:39:50.054Z,892.00
2022-09-26T07:40:44.525Z,900.00
2022-09-26T07:41:43.421Z,908.00
2022-09-26T07:43:04.033Z,900.00
2022-09-26T07:45:45.606Z,904.00
2022-09-26T07:46:43.720Z,912.00
2022-09-26T07:47:43.349Z,912.00
2022-09-26T07:48:44.593Z,920.00
2022-09-26T07:49:43.331Z,920.00
2022-09-26T07:50:44.351Z,920.00
2022-09-26T07:51:43.342Z,924.00
2022-09-26T07:52:43.275Z,916.00
2022-09-26T07:53:43.317Z,912.00
2022-09-26T07:54:43.519Z,916.00
2022-09-26T07:55:43.483Z,908.00
2022-09-26T07:56:43.259Z,920.00
2022-09-26T07:57:43.258Z,936.00
2022-09-26T07:58:46.271Z,932.00
2022-09-26T07:59:43.214Z,916.00
2022-09-26T08:00:44.224Z,936.00
2022-09-26T08:01:43.438Z,940.00
2022-09-26T08:02:43.530Z,940.00
2022-09-26T08:03:43.179Z,952.00
2022-09-26T08:04:43.144Z,960.00
2022-09-26T08:05:44.170Z,976.00
2022-09-26T08:06:43.377Z,952.00
2022-09-26T08:07:46.144Z,972.00
2022-09-26T08:08:58.431Z,976.00
2022-09-26T08:09:43.316Z,980.00
2022-09-26T08:10:44.106Z,992.00
2022-09-26T08:11:43.366Z,968.00
2022-09-26T08:12:44.099Z,964.00
2022-09-26T08:13:50.476Z,968.00
2022-09-26T08:14:43.076Z,976.00
2022-09-26T08:15:43.086Z,972.00
2022-09-26T08:16:43.076Z,984.00
2022-09-26T08:17:43.025Z,996.00
2022-09-26T08:18:43.253Z,996.00
2022-09-26T08:19:58.355Z,1012.00
2022-09-26T08:20:43.226Z,1004.00
2022-09-26T08:21:43.241Z,1016.00
2022-09-26T08:22:43.223Z,1012.00
2022-09-26T08:23:44.216Z,1024.00
2022-09-26T08:24:42.950Z,1020.00
2022-09-26T08:25:50.330Z,1020.00
2022-09-26T08:26:44.587Z,1028.00
2022-09-26T08:27:42.916Z,1036.00
2022-09-26T08:28:43.250Z,1044.00
2022-09-26T08:29:43.021Z,1076.00
2022-09-26T08:30:42.898Z,1096.00
2022-09-26T08:31:42.945Z,1112.00
2022-09-26T08:32:42.911Z,1112.00
2022-09-26T08:33:42.875Z,1120.00
2022-09-26T08:34:43.857Z,1128.00
2022-09-26T08:35:43.051Z,1140.00
2022-09-26T08:36:50.058Z,1184.00
2022-09-26T08:37:42.867Z,1204.00
2022-09-26T08:38:42.853Z,1236.00
2022-09-26T08:39:42.787Z,1264.00
2022-09-26T08:40:42.855Z,1828.00
2022-09-26T08:41:42.775Z,2044.00
2022-09-26T08:42:42.801Z,1728.00
2022-09-26T08:43:42.808Z,1548.00
2022-09-26T08:44:42.764Z,1544.00
2022-09-26T08:45:47.291Z,1520.00
2022-09-26T08:46:43.801Z,1516.00
2022-09-26T08:47:42.731Z,1548.00
2022-09-26T08:48:42.708Z,1620.00
2022-09-26T08:49:42.684Z,1720.00
2022-09-26T08:50:42.719Z,1768.00
2022-09-26T08:51:42.670Z,1796.00
2022-09-26T08:52:42.653Z,2004.00
2022-09-26T08:53:42.648Z,2388.00
2022-09-26T08:54:42.653Z,3832.00
2022-09-26T08:55:42.641Z,3488.00
2022-09-26T08:56:42.617Z,4072.00
2022-09-26T08:57:42.596Z,3216.00
2022-09-26T08:58:42.591Z,3476.00
2022-09-26T08:59:42.626Z,3412.00
2022-09-26T09:00:42.587Z,4380.00
2022-09-26T09:01:42.744Z,3296.00
2022-09-26T09:02:42.650Z,3260.00
2022-09-26T09:03:42.533Z,4568.00
2022-09-26T09:04:42.717Z,3656.00
2022-09-26T09:05:42.535Z,3580.00
2022-09-26T09:06:42.516Z,3360.00
2022-09-26T09:07:42.497Z,3708.00
2022-09-26T09:08:42.498Z,4144.00
2022-09-26T09:09:42.472Z,3188.00
2022-09-26T09:10:42.685Z,3348.00
2022-09-26T09:11:42.472Z,2336.00
2022-09-26T09:12:42.446Z,2088.00
2022-09-26T09:13:42.427Z,2076.00
2022-09-26T09:14:42.419Z,3428.00
2022-09-26T09:15:42.436Z,3636.00
2022-09-26T09:16:42.467Z,2608.00
2022-09-26T09:17:42.409Z,2760.00
2022-09-26T09:18:42.380Z,2880.00
2022-09-26T09:19:42.390Z,3024.00
2022-09-26T09:20:42.375Z,4260.00
2022-09-26T09:21:42.367Z,3488.00
2022-09-26T09:22:42.356Z,1844.00
2022-09-26T09:23:42.319Z,2992.00
2022-09-26T09:24:42.310Z,3168.00
2022-09-26T09:25:42.321Z,2964.00
2022-09-26T09:28:03.964Z,3780.00
2022-09-26T09:28:43.268Z,5540.00
2022-09-26T09:29:42.254Z,5324.00
2022-09-26T09:30:42.265Z,4084.00
2022-09-26T09:31:42.292Z,3420.00
2022-09-26T09:32:42.274Z,4800.00
2022-09-26T09:33:42.227Z,5764.00
2022-09-26T09:34:42.222Z,4828.00
2022-09-26T09:35:42.188Z,5304.00
2022-09-26T09:36:42.200Z,4572.00
2022-09-26T09:37:42.181Z,2692.00
2022-09-26T09:38:42.194Z,4744.00
2022-09-26T09:39:42.150Z,3388.00
2022-09-26T09:40:42.189Z,2988.00
2022-09-26T09:41:42.121Z,2868.00
2022-09-26T09:42:42.138Z,2160.00
2022-09-26T09:43:42.163Z,3064.00
2022-09-26T09:44:46.464Z,1656.00
2022-09-26T09:45:43.103Z,1612.00
2022-09-26T09:46:42.163Z,2204.00
2022-09-26T09:47:42.077Z,1852.00
2022-09-26T09:48:42.102Z,1996.00
2022-09-26T09:49:42.067Z,2320.00
2022-09-26T09:50:42.082Z,2564.00
2022-09-26T09:51:42.046Z,1968.00
2022-09-26T09:52:42.033Z,2184.00
2022-09-26T09:53:42.011Z,2664.00
2022-09-26T09:54:42.004Z,3608.00
2022-09-26T09:55:41.974Z,2492.00
2022-09-26T09:56:41.975Z,2824.00
2022-09-26T09:57:41.981Z,1844.00
2022-09-26T09:58:42.954Z,1772.00
2022-09-26T09:59:41.971Z,2260.00
2022-09-26T10:00:41.926Z,3680.00
2022-09-26T10:01:41.938Z,3320.00
2022-09-26T10:02:41.939Z,2948.00
2022-09-26T10:03:41.966Z,1860.00
2022-09-26T10:04:41.903Z,3228.00
2022-09-26T10:05:41.909Z,2220.00
2022-09-26T10:06:45.199Z,1684.00
2022-09-26T10:07:41.849Z,1872.00
2022-09-26T10:08:41.865Z,3540.00
2022-09-26T10:09:41.848Z,5112.00
2022-09-26T10:10:41.879Z,4296.00
2022-09-26T10:11:41.819Z,3688.00
2022-09-26T10:12:41.813Z,3592.00
2022-09-26T10:13:41.817Z,2552.00
2022-09-26T10:14:41.806Z,1816.00
2022-09-26T10:15:41.829Z,2300.00
2022-09-26T10:16:41.755Z,3656.00
2022-09-26T10:17:41.766Z,3644.00
2022-09-26T10:18:41.743Z,2836.00
2022-09-26T10:19:41.759Z,1860.00
2022-09-26T10:20:41.722Z,3000.00
2022-09-26T10:21:41.720Z,3552.00
2022-09-26T10:22:41.704Z,4484.00
2022-09-26T10:23:41.700Z,3452.00
2022-09-26T10:24:41.688Z,3164.00
2022-09-26T10:25:41.669Z,2784.00
2022-09-26T10:26:41.658Z,2620.00
2022-09-26T10:27:41.677Z,2476.00
2022-09-26T10:28:41.638Z,2800.00
2022-09-26T10:29:41.698Z,2948.00
2022-09-26T10:30:41.620Z,2888.00
2022-09-26T10:31:43.053Z,1624.00
2022-09-26T10:32:41.641Z,5572.00
2022-09-26T10:33:41.639Z,3836.00
2022-09-26T10:34:41.592Z,5024.00
2022-09-26T10:35:41.565Z,6256.00
2022-09-26T10:36:41.553Z,3956.00
2022-09-26T10:37:41.563Z,3512.00
2022-09-26T10:38:41.546Z,4208.00
2022-09-26T10:39:41.590Z,4884.00
2022-09-26T10:40:41.598Z,4996.00
2022-09-26T10:41:41.509Z,4916.00
2022-09-26T10:42:41.495Z,4024.00
2022-09-26T10:43:41.490Z,3256.00
2022-09-26T10:44:41.462Z,3008.00
2022-09-26T10:45:41.512Z,3484.00
2022-09-26T10:46:41.522Z,4144.00
2022-09-26T10:47:41.466Z,4340.00
2022-09-26T10:48:41.423Z,3184.00
2022-09-26T10:49:41.439Z,3300.00
2022-09-26T10:50:41.449Z,2280.00
2022-09-26T10:51:41.435Z,4344.00
2022-09-26T10:52:41.391Z,3984.00
2022-09-26T10:53:41.428Z,3772.00
2022-09-26T10:54:41.375Z,3664.00
2022-09-26T10:55:41.392Z,3356.00
2022-09-26T10:56:42.353Z,2988.00
2022-09-26T10:57:41.348Z,3228.00
2022-09-26T10:58:41.334Z,4268.00
2022-09-26T10:59:41.315Z,4792.00
2022-09-26T11:00:41.342Z,4784.00
2022-09-26T11:01:41.338Z,4796.00
2022-09-26T11:02:41.290Z,4748.00
2022-09-26T11:03:41.353Z,5480.00
2022-09-26T11:04:41.291Z,5076.00
2022-09-26T11:05:41.244Z,2440.00
2022-09-26T11:06:41.259Z,2348.00
2022-09-26T11:07:41.263Z,1912.00
2022-09-26T11:08:41.206Z,2076.00
2022-09-26T11:09:41.205Z,1496.00
2022-09-26T11:10:41.224Z,1656.00
2022-09-26T11:11:41.227Z,2400.00
2022-09-26T11:12:41.212Z,3372.00
2022-09-26T11:13:41.183Z,2472.00
2022-09-26T11:14:41.160Z,2080.00
2022-09-26T11:15:41.191Z,1544.00
2022-09-26T11:16:41.160Z,1916.00
2022-09-26T11:17:41.123Z,3608.00
2022-09-26T11:18:41.129Z,2768.00
2022-09-26T11:19:41.097Z,2220.00
2022-09-26T11:20:41.088Z,1480.00
2022-09-26T11:21:41.087Z,1292.00
2022-09-26T11:22:41.114Z,1344.00
2022-09-26T11:23:41.086Z,1268.00
2022-09-26T11:25:02.044Z,1580.00
2022-09-26T11:25:41.027Z,1768.00
2022-09-26T11:27:02.027Z,1880.00
2022-09-26T11:31:11.245Z,2304.00
2022-09-26T11:32:32.223Z,2488.00
2022-09-26T11:33:11.221Z,2868.00
2022-09-26T11:34:32.226Z,4240.00
2022-09-26T11:35:32.171Z,4028.00
2022-09-26T11:36:32.159Z,5124.00
2022-09-26T11:38:21.163Z,4300.00
2022-09-26T11:39:45.153Z,3380.00
2022-09-26T11:40:21.192Z,4516.00
2022-09-26T11:41:21.145Z,3208.00
2022-09-26T11:42:21.141Z,3540.00
2022-09-26T11:43:22.356Z,3572.00
2022-09-26T11:44:21.105Z,4672.00
2022-09-26T11:45:47.203Z,4332.00
2022-09-26T11:46:22.102Z,4648.00
2022-09-26T11:47:21.075Z,3856.00
2022-09-26T11:48:22.283Z,2864.00
2022-09-26T11:49:21.059Z,2144.00
2022-09-26T11:50:43.048Z,1716.00
2022-09-26T11:51:22.019Z,2372.00
2022-09-26T11:52:28.433Z,1808.00
2022-09-26T11:53:21.230Z,1320.00
2022-09-26T11:54:21.994Z,3404.00
2022-09-26T11:55:20.997Z,2584.00
2022-09-26T11:56:21.197Z,2932.00
2022-09-26T11:57:20.946Z,1664.00
2022-09-26T11:58:23.978Z,1788.00
2022-09-26T11:59:22.218Z,2856.00
2022-09-26T12:00:20.970Z,2276.00
2022-09-26T12:01:21.154Z,2760.00
2022-09-26T12:02:20.996Z,3004.00
2022-09-26T12:03:20.999Z,3076.00
2022-09-26T12:04:21.041Z,2960.00
2022-09-26T12:05:26.090Z,3064.00
2022-09-26T12:06:22.109Z,3236.00
2022-09-26T12:07:21.887Z,2916.00
2022-09-26T12:08:23.881Z,2728.00
2022-09-26T12:09:21.080Z,2492.00
2022-09-26T12:10:21.076Z,2044.00
2022-09-26T12:11:20.822Z,2368.00
2022-09-26T12:12:23.830Z,3316.00
2022-09-26T12:13:21.806Z,3552.00
2022-09-26T12:14:21.800Z,2300.00
2022-09-26T12:15:21.030Z,1428.00
2022-09-26T12:16:20.887Z,1024.00
2022-09-26T12:17:20.752Z,984.00
2022-09-26T12:18:21.769Z,964.00
2022-09-26T12:19:20.708Z,980.00
2022-09-26T12:20:20.734Z,1596.00
2022-09-26T12:21:20.705Z,2648.00
2022-09-26T12:22:20.684Z,2992.00
2022-09-26T12:23:20.660Z,4024.00
2022-09-26T12:24:20.665Z,3088.00
2022-09-26T12:25:20.656Z,2180.00
2022-09-26T12:26:20.641Z,1972.00
2022-09-26T12:27:20.644Z,1928.00
2022-09-26T12:28:20.884Z,1464.00
2022-09-26T12:29:20.925Z,1184.00
2022-09-26T12:30:20.600Z,1224.00
2022-09-26T12:31:20.892Z,1340.00
2022-09-26T12:32:20.790Z,1544.00
2022-09-26T12:33:20.613Z,1796.00
2022-09-26T12:34:20.616Z,2100.00
2022-09-26T12:35:20.557Z,2368.00
2022-09-26T12:36:20.788Z,2688.00
2022-09-26T12:37:20.565Z,2872.00
2022-09-26T12:38:20.540Z,2824.00
2022-09-26T12:39:20.514Z,2768.00
2022-09-26T12:40:20.615Z,2804.00
2022-09-26T12:41:20.487Z,2916.00
2022-09-26T12:42:20.523Z,2936.00
2022-09-26T12:43:20.516Z,2964.00
2022-09-26T12:44:20.454Z,2976.00
2022-09-26T12:45:20.436Z,2868.00
2022-09-26T12:46:20.493Z,2928.00